createdAt,value
2017-11-22T00:00:32.817Z,100268.39
2017-11-22T00:03:07.805Z,100260.45
2017-11-22T00:05:42.536Z,100270.35
2017-11-22T00:08:17.845Z,100272.67
2017-11-22T00:10:52.834Z,100265.95
2017-11-22T00:13:27.780Z,100267.28
2017-11-22T00:16:03.078Z,100277.83
2017-11-22T00:18:38.028Z,100269.76
2017-11-22T00:21:13.356Z,100270.08
2017-11-22T00:23:48.761Z,100256.31
2017-11-22T00:26:23.164Z,100252.19
2017-11-22T00:28:58.199Z,100262.59
2017-11-22T00:31:33.391Z,100254.59
2017-11-22T00:34:08.553Z,100253.41
2017-11-22T00:36:43.553Z,100254.20
2017-11-22T00:39:18.737Z,100253.33
2017-11-22T00:41:53.870Z,100244.73
2017-11-22T00:44:28.718Z,100250.87
2017-11-22T00:47:03.845Z,100244.09
2017-11-22T01:02:31.384Z,100241.34
2017-11-22T01:05:05.946Z,100244.89
2017-11-22T01:07:40.654Z,100243.63
2017-11-22T01:10:15.486Z,100246.01
2017-11-22T01:12:50.491Z,100237.84
2017-11-22T01:15:25.380Z,100232.34
2017-11-22T01:18:00.375Z,100223.08
2017-11-22T01:20:35.216Z,100235.88
2017-11-22T01:23:10.155Z,100216.66
2017-11-22T01:25:45.182Z,100230.73
2017-11-22T01:28:19.929Z,100219.08
2017-11-22T01:30:54.887Z,100223.61
2017-11-22T01:33:29.737Z,100230.49
2017-11-22T01:36:04.409Z,100217.02
2017-11-22T01:38:39.522Z,100211.70
2017-11-22T01:41:13.999Z,100216.49
2017-11-22T01:43:49.208Z,100197.72
2017-11-22T01:46:23.854Z,100205.36
2017-11-22T01:48:58.696Z,100199.14
2017-11-22T01:51:33.581Z,100200.64
2017-11-22T01:54:08.375Z,100189.41
2017-11-22T01:56:43.478Z,100201.89
2017-11-22T01:59:18.184Z,100196.84
2017-11-22T02:01:53.432Z,100193.35
2017-11-22T02:04:28.178Z,100187.42
2017-11-22T02:07:03.358Z,100184.37
2017-11-22T02:09:38.390Z,100184.08
2017-11-22T02:12:13.432Z,100177.02
2017-11-22T02:14:48.357Z,100175.23
2017-11-22T02:17:23.445Z,100169.42
2017-11-22T02:19:58.395Z,100169.17
2017-11-22T02:22:33.301Z,100171.50
2017-11-22T02:25:08.156Z,100164.84
2017-11-22T02:27:43.106Z,100166.03
2017-11-22T02:30:17.876Z,100163.27
2017-11-22T02:32:52.895Z,100167.97
2017-11-22T02:35:27.712Z,100165.64
2017-11-22T02:38:02.706Z,100184.17
2017-11-22T02:40:37.089Z,100178.27
2017-11-22T02:43:12.030Z,100185.08
2017-11-22T02:45:46.912Z,100181.04
2017-11-22T02:48:21.957Z,100187.08
2017-11-22T02:50:56.605Z,100172.31
2017-11-22T02:53:31.517Z,100173.88
2017-11-22T02:56:06.115Z,100175.23
2017-11-22T02:58:41.335Z,100172.24
2017-11-22T03:01:15.722Z,100174.61
2017-11-22T03:03:50.948Z,100170.35
2017-11-22T03:06:25.430Z,100180.08
2017-11-22T03:09:00.610Z,100176.61
2017-11-22T03:11:35.694Z,100166.82
2017-11-22T03:14:10.487Z,100168.09
2017-11-22T03:16:45.590Z,100168.75
2017-11-22T03:19:20.922Z,100167.70
2017-11-22T03:21:56.061Z,100163.15
2017-11-22T03:24:30.892Z,100153.14
2017-11-22T03:27:05.885Z,100152.16
2017-11-22T03:29:40.674Z,100146.70
2017-11-22T03:32:15.779Z,100144.22
2017-11-22T03:34:50.605Z,100133.41
2017-11-22T03:37:25.662Z,100140.51
2017-11-22T03:40:00.385Z,100137.81
2017-11-22T03:42:35.516Z,100128.72
2017-11-22T03:45:10.349Z,100128.36
2017-11-22T03:47:48.114Z,100131.48
2017-11-22T03:50:28.125Z,100118.86
2017-11-22T03:53:08.155Z,100129.59
2017-11-22T03:55:43.486Z,100127.38
2017-11-22T03:58:17.996Z,100135.45
2017-11-22T04:00:52.995Z,100121.95
2017-11-22T04:03:27.931Z,100121.73
2017-11-22T04:06:05.704Z,100129.73
2017-11-22T04:08:40.817Z,100138.87
2017-11-22T04:11:18.569Z,100138.07
2017-11-22T04:13:53.782Z,100130.36
2017-11-22T04:16:28.969Z,100121.01
2017-11-22T04:19:09.070Z,100123.73
2017-11-22T04:21:43.585Z,100126.50
2017-11-22T04:24:18.552Z,100144.47
2017-11-22T04:26:53.468Z,100125.27
2017-11-22T04:29:28.610Z,100124.39
2017-11-22T04:32:06.514Z,100123.19
2017-11-22T04:34:41.334Z,100124.39
2017-11-22T04:37:16.281Z,100119.63
2017-11-22T04:39:51.119Z,100125.05
2017-11-22T04:42:26.037Z,100118.70
2017-11-22T04:45:00.663Z,100119.66
2017-11-22T04:47:35.576Z,100116.73
2017-11-22T04:50:10.500Z,100114.87
2017-11-22T04:52:45.462Z,100115.42
2017-11-22T04:55:20.355Z,100120.88
2017-11-22T04:57:55.287Z,100121.24
2017-11-22T05:00:29.859Z,100117.74
2017-11-22T05:03:04.692Z,100118.68
2017-11-22T05:05:39.712Z,100113.52
2017-11-22T05:08:14.839Z,100114.20
2017-11-22T05:10:49.420Z,100108.67
2017-11-22T05:13:24.327Z,100106.78
2017-11-22T05:15:59.349Z,100111.87
2017-11-22T05:18:34.526Z,100090.59
2017-11-22T05:21:09.501Z,100100.95
2017-11-22T05:23:44.774Z,100090.53
2017-11-22T05:26:19.802Z,100085.72
2017-11-22T05:28:54.896Z,100088.50
2017-11-22T05:31:29.811Z,100083.91
2017-11-22T05:34:04.809Z,100077.63
2017-11-22T05:36:39.838Z,100083.91
2017-11-22T05:39:14.461Z,100080.35
2017-11-22T05:41:49.622Z,100089.66
2017-11-22T05:44:24.582Z,100091.00
2017-11-22T05:46:59.558Z,100093.41
2017-11-22T05:49:34.531Z,100102.82
2017-11-22T05:52:09.680Z,100086.92
2017-11-22T05:54:44.153Z,100098.86
2017-11-22T05:57:18.985Z,100108.07
2017-11-22T05:59:54.041Z,100108.18
2017-11-22T06:02:28.865Z,100110.41
2017-11-22T06:05:03.823Z,100115.79
2017-11-22T06:07:38.850Z,100120.88
2017-11-22T06:10:13.529Z,100114.33
2017-11-22T06:12:48.504Z,100120.62
2017-11-22T06:15:23.507Z,100129.53
2017-11-22T06:17:58.485Z,100128.09
2017-11-22T06:20:33.209Z,100131.66
2017-11-22T06:23:08.194Z,100126.02
2017-11-22T06:25:43.481Z,100132.50
2017-11-22T06:28:18.732Z,100133.12
2017-11-22T06:31:00.910Z,100126.17
2017-11-22T06:33:36.314Z,100124.38
2017-11-22T06:36:11.252Z,100120.64
2017-11-22T06:38:46.234Z,100133.77
2017-11-22T06:41:21.287Z,100131.84
2017-11-22T06:43:56.173Z,100137.77
2017-11-22T06:46:31.229Z,100138.94
2017-11-22T06:49:06.256Z,100140.22
2017-11-22T06:51:41.173Z,100140.66
2017-11-22T06:54:16.045Z,100130.61
2017-11-22T06:56:51.379Z,100145.97
2017-11-22T06:59:26.301Z,100144.14
2017-11-22T07:02:01.352Z,100141.75
2017-11-22T07:04:36.391Z,100142.11
2017-11-22T07:07:11.404Z,100146.80
2017-11-22T07:09:46.398Z,100148.63
2017-11-22T07:12:21.589Z,100150.84
2017-11-22T07:14:56.826Z,100151.75
2017-11-22T07:17:33.818Z,100154.48
2017-11-22T07:20:08.833Z,100148.70
2017-11-22T07:22:43.705Z,100159.98
2017-11-22T07:25:18.533Z,100156.52
2017-11-22T07:27:52.961Z,100161.30
2017-11-22T07:30:27.689Z,100156.05
2017-11-22T07:33:02.689Z,100152.05
2017-11-22T07:35:42.554Z,100155.66
2017-11-22T07:38:18.097Z,100161.84
2017-11-22T07:40:53.034Z,100170.21
2017-11-22T07:43:27.930Z,100163.27
2017-11-22T07:46:02.761Z,100163.69
2017-11-22T07:48:37.626Z,100167.08
2017-11-22T07:51:17.892Z,100164.31
2017-11-22T07:53:53.217Z,100163.22
2017-11-22T07:56:27.973Z,100164.94
2017-11-22T07:59:06.405Z,100172.58
2017-11-22T08:01:41.801Z,100168.64
2017-11-22T08:04:22.020Z,100167.08
2017-11-22T08:06:57.242Z,100168.28
2017-11-22T08:09:32.088Z,100169.08
2017-11-22T08:12:07.002Z,100170.06
2017-11-22T08:14:42.178Z,100170.20
2017-11-22T08:17:17.074Z,100170.94
2017-11-22T08:19:51.882Z,100174.61
2017-11-22T08:22:26.602Z,100171.63
2017-11-22T08:25:08.189Z,100171.26
2017-11-22T08:27:43.536Z,100182.29
2017-11-22T08:30:18.914Z,100187.39
2017-11-22T08:32:53.798Z,100196.45
2017-11-22T08:35:28.648Z,100181.20
2017-11-22T08:38:03.777Z,100175.09
2017-11-22T08:40:39.036Z,100172.76
2017-11-22T08:43:19.106Z,100173.27
2017-11-22T08:45:54.393Z,100172.87
2017-11-22T08:48:29.484Z,100173.09
2017-11-22T08:51:04.248Z,100182.52
2017-11-22T08:53:39.326Z,100175.23
2017-11-22T08:56:19.802Z,100183.64
2017-11-22T08:58:57.325Z,100190.98
2017-11-22T09:01:32.408Z,100198.52
2017-11-22T09:04:10.293Z,100203.12
2017-11-22T09:06:50.928Z,100201.04
2017-11-22T09:09:26.257Z,100194.71
2017-11-22T09:12:07.016Z,100196.13
2017-11-22T09:14:44.022Z,100201.39
2017-11-22T09:17:19.593Z,100194.98
2017-11-22T09:19:54.661Z,100202.02
2017-11-22T09:22:29.713Z,100202.89
2017-11-22T09:25:07.345Z,100208.97
2017-11-22T09:27:48.333Z,100206.75
2017-11-22T09:30:23.234Z,100205.70
2017-11-22T09:32:59.014Z,100215.42
2017-11-22T09:35:34.361Z,100213.02
2017-11-22T09:38:08.841Z,100210.11
2017-11-22T09:40:44.128Z,100210.58
2017-11-22T09:43:18.846Z,100221.22
2017-11-22T09:45:53.715Z,100213.46
2017-11-22T09:48:28.529Z,100207.78
2017-11-22T09:51:03.420Z,100212.36
2017-11-22T09:53:38.165Z,100211.30
2017-11-22T09:56:13.283Z,100208.42
2017-11-22T09:58:48.020Z,100204.27
2017-11-22T10:01:23.025Z,100212.31
2017-11-22T10:03:57.733Z,100205.86
2017-11-22T10:06:32.598Z,100205.02
2017-11-22T10:09:07.784Z,100203.50
2017-11-22T10:11:42.476Z,100195.63
2017-11-22T10:14:17.273Z,100199.38
2017-11-22T10:16:57.611Z,100204.87
2017-11-22T10:19:37.569Z,100196.98
2017-11-22T10:22:11.921Z,100206.95
2017-11-22T10:24:46.181Z,100219.30
2017-11-22T10:27:25.763Z,100200.92
2017-11-22T10:30:06.257Z,100194.46
2017-11-22T10:32:46.515Z,100193.63
2017-11-22T10:35:20.936Z,100192.66
2017-11-22T10:37:55.637Z,100197.67
2017-11-22T10:40:29.642Z,100196.78
2017-11-22T10:43:04.724Z,100189.33
2017-11-22T10:45:39.320Z,100190.16
2017-11-22T10:48:14.571Z,100193.36
2017-11-22T10:50:48.958Z,100189.05
2017-11-22T10:53:23.926Z,100178.32
2017-11-22T10:55:58.485Z,100186.07
2017-11-22T10:58:33.482Z,100182.87
2017-11-22T11:01:08.673Z,100181.52
2017-11-22T11:03:43.692Z,100191.16
2017-11-22T11:06:18.770Z,100196.51
2017-11-22T11:08:53.885Z,100190.80
2017-11-22T11:11:28.873Z,100191.66
2017-11-22T11:14:03.788Z,100196.42
2017-11-22T11:16:38.610Z,100197.22
2017-11-22T11:19:13.262Z,100194.09
2017-11-22T11:21:47.703Z,100194.58
2017-11-22T11:24:22.549Z,100203.24
2017-11-22T11:26:57.753Z,100204.75
2017-11-22T11:29:32.592Z,100203.25
2017-11-22T11:32:07.595Z,100207.07
2017-11-22T11:34:42.477Z,100200.42
2017-11-22T11:37:16.970Z,100195.52
2017-11-22T11:39:52.077Z,100195.94
2017-11-22T11:42:26.693Z,100195.70
2017-11-22T11:45:01.694Z,100192.46
2017-11-22T11:47:36.433Z,100190.72
2017-11-22T11:50:11.244Z,100193.82
2017-11-22T11:52:46.346Z,100209.04
2017-11-22T11:55:20.833Z,100200.72
2017-11-22T11:57:56.065Z,100215.49
2017-11-22T12:00:30.764Z,100211.47
2017-11-22T12:03:05.384Z,100205.77
2017-11-22T12:05:40.621Z,100205.41
2017-11-22T12:08:15.853Z,100192.20
2017-11-22T12:10:50.920Z,100188.27
2017-11-22T12:13:25.873Z,100196.66
2017-11-22T12:16:00.801Z,100209.67
2017-11-22T12:18:35.680Z,100199.66
2017-11-22T12:21:10.641Z,100206.47
2017-11-22T12:23:45.564Z,100203.97
2017-11-22T12:26:20.593Z,100197.17
2017-11-22T12:28:55.441Z,100201.66
2017-11-22T12:31:30.393Z,100208.96
2017-11-22T12:34:05.301Z,100208.41
2017-11-22T12:36:40.054Z,100205.55
2017-11-22T12:39:14.886Z,100213.02
2017-11-22T12:41:49.578Z,100214.16
2017-11-22T12:44:24.499Z,100209.39
2017-11-22T12:46:59.436Z,100214.59
2017-11-22T12:49:34.227Z,100215.66
2017-11-22T12:52:09.052Z,100219.47
2017-11-22T12:54:43.362Z,100215.41
2017-11-22T12:57:18.582Z,100215.91
2017-11-22T12:59:53.405Z,100220.52
2017-11-22T13:02:28.153Z,100220.88
2017-11-22T13:05:03.186Z,100220.02
2017-11-22T13:07:37.971Z,100215.53
2017-11-22T13:23:38.959Z,100213.19
2017-11-22T13:26:14.038Z,100206.65
2017-11-22T13:28:48.817Z,100197.03
2017-11-22T13:31:23.589Z,100191.20
2017-11-22T13:33:58.053Z,100170.56
2017-11-22T13:36:32.748Z,100179.95
2017-11-22T13:39:07.049Z,100175.90
2017-11-22T13:41:45.886Z,100179.92
2017-11-22T13:44:20.666Z,100172.56
2017-11-22T13:46:55.345Z,100173.55
2017-11-22T13:49:30.331Z,100170.14
2017-11-22T13:52:05.468Z,100159.66
2017-11-22T13:54:39.959Z,100165.66
2017-11-22T13:57:14.680Z,100158.23
2017-11-22T13:59:49.737Z,100154.89
2017-11-22T14:02:24.499Z,100143.24
2017-11-22T14:04:59.101Z,100145.71
2017-11-22T14:07:33.944Z,100145.16
2017-11-22T14:10:09.025Z,100137.12
2017-11-22T14:12:43.370Z,100139.75
2017-11-22T14:15:17.959Z,100134.70
2017-11-22T14:17:52.810Z,100141.22
2017-11-22T14:20:27.512Z,100136.33
2017-11-22T14:23:02.515Z,100131.56
2017-11-22T14:25:37.395Z,100127.59
2017-11-22T14:28:12.161Z,100136.13
2017-11-22T14:30:47.017Z,100126.80
2017-11-22T14:33:22.001Z,100138.08
2017-11-22T14:35:56.098Z,100138.11
2017-11-22T14:38:30.098Z,100141.92
2017-11-22T14:41:04.898Z,100139.61
2017-11-22T14:43:39.582Z,100134.13
2017-11-22T14:46:14.762Z,100134.41
2017-11-22T14:48:49.379Z,100124.13
2017-11-22T14:51:24.269Z,100126.67
2017-11-22T14:53:58.405Z,100131.00
2017-11-22T14:56:32.817Z,100130.16
2017-11-22T14:59:07.658Z,100128.84
2017-11-22T15:01:42.070Z,100125.23
2017-11-22T15:04:16.558Z,100128.37
2017-11-22T15:06:50.635Z,100124.84
2017-11-22T15:09:25.142Z,100135.40
2017-11-22T15:11:59.721Z,100133.41
2017-11-22T15:14:34.521Z,100136.77
2017-11-22T15:17:08.630Z,100128.97
2017-11-22T15:19:43.258Z,100126.47
2017-11-22T15:22:17.932Z,100118.74
2017-11-22T15:24:52.718Z,100111.83
2017-11-22T15:27:27.788Z,100106.50
2017-11-22T15:30:02.269Z,100117.25
2017-11-22T15:32:37.223Z,100112.31
2017-11-22T15:35:12.189Z,100096.12
2017-11-22T15:37:47.269Z,100103.03
2017-11-22T15:40:21.891Z,100108.71
2017-11-22T15:42:57.037Z,100104.44
2017-11-22T15:45:31.861Z,100094.70
2017-11-22T15:48:06.500Z,100088.47
2017-11-22T15:50:41.322Z,100089.89
2017-11-22T15:53:16.581Z,100096.20
2017-11-22T15:55:51.093Z,100092.36
2017-11-22T15:58:26.286Z,100097.28
2017-11-22T16:01:00.837Z,100097.39
2017-11-22T16:03:35.813Z,100098.32
2017-11-22T16:06:10.084Z,100093.99
2017-11-22T16:08:45.100Z,100089.52
2017-11-22T16:11:19.624Z,100091.85
2017-11-22T16:13:54.425Z,100088.30
2017-11-22T16:16:28.831Z,100088.30
2017-11-22T16:19:03.859Z,100088.37
2017-11-22T16:21:38.758Z,100090.37
2017-11-22T16:24:13.956Z,100091.63
2017-11-22T16:26:54.731Z,100088.29
2017-11-22T16:29:37.649Z,100084.52
2017-11-22T16:32:13.337Z,100082.94
2017-11-22T16:34:49.595Z,100076.11
2017-11-22T16:37:24.676Z,100080.94
2017-11-22T16:39:59.416Z,100075.86
2017-11-22T16:42:34.438Z,100068.55
2017-11-22T16:45:09.279Z,100068.23
2017-11-22T16:47:44.617Z,100061.28
2017-11-22T16:50:19.325Z,100062.48
2017-11-22T16:52:54.181Z,100062.56
2017-11-22T16:55:28.976Z,100063.91
2017-11-22T16:58:04.065Z,100059.87
2017-11-22T17:00:38.933Z,100058.38
2017-11-22T17:03:14.132Z,100056.70
2017-11-22T17:05:48.878Z,100049.89
2017-11-22T17:08:23.588Z,100047.31
2017-11-22T17:10:58.454Z,100054.66
2017-11-22T17:13:33.356Z,100050.87
2017-11-22T17:16:07.954Z,100045.62
2017-11-22T17:18:42.556Z,100044.35
2017-11-22T17:21:17.547Z,100040.95
2017-11-22T17:23:52.109Z,100040.77
2017-11-22T17:26:26.918Z,100029.66
2017-11-22T17:29:02.207Z,100033.31
2017-11-22T17:31:37.144Z,100032.23
2017-11-22T17:34:12.087Z,100026.65
2017-11-22T17:36:46.631Z,100021.20
2017-11-22T17:39:21.665Z,100021.16
2017-11-22T17:41:56.340Z,100016.27
2017-11-22T17:44:31.417Z,100019.87
2017-11-22T17:47:06.337Z,100020.87
2017-11-22T17:49:41.268Z,100016.69
2017-11-22T17:52:16.231Z,100017.98
2017-11-22T17:54:51.132Z,100007.62
2017-11-22T17:57:26.181Z,100006.05
2017-11-22T18:00:00.918Z,100006.06
2017-11-22T18:02:36.232Z,100003.13
2017-11-22T18:05:11.228Z,100005.72
2017-11-22T18:07:45.814Z,99994.64
2017-11-22T18:10:20.572Z,100000.02
2017-11-22T18:12:55.601Z,99988.19
2017-11-22T18:15:30.397Z,99992.61
2017-11-22T18:18:05.237Z,99985.84
2017-11-22T18:20:39.649Z,99979.30
2017-11-22T18:23:14.509Z,99983.36
2017-11-22T18:25:49.522Z,99980.30
2017-11-22T18:28:24.267Z,99979.03
2017-11-22T18:30:58.801Z,99978.95
2017-11-22T18:33:33.680Z,99967.67
2017-11-22T18:36:08.515Z,99962.85
2017-11-22T18:38:43.105Z,99959.84
2017-11-22T18:41:18.093Z,99959.09
2017-11-22T18:43:52.843Z,99968.09
2017-11-22T18:46:27.365Z,99965.67
2017-11-22T18:49:02.452Z,99970.16
2017-11-22T18:51:41.312Z,99966.55
2017-11-22T18:54:16.175Z,99974.56
2017-11-22T18:56:51.010Z,99967.97
2017-11-22T18:59:26.024Z,99965.27
2017-11-22T19:02:00.776Z,99967.07
2017-11-22T19:04:35.097Z,99961.88
2017-11-22T19:07:09.784Z,99955.84
2017-11-22T19:09:49.781Z,99959.39
2017-11-22T19:12:24.572Z,99948.26
2017-11-22T19:15:00.236Z,99946.50
2017-11-22T19:17:34.976Z,99945.26
2017-11-22T19:20:09.905Z,99943.55
2017-11-22T19:22:44.834Z,99952.05
2017-11-22T19:25:20.372Z,99942.05
2017-11-22T19:27:54.914Z,99936.40
2017-11-22T19:30:29.966Z,99937.55
2017-11-22T19:33:04.586Z,99944.12
2017-11-22T19:35:42.930Z,99948.61
2017-11-22T19:38:23.516Z,99943.67
2017-11-22T19:40:59.106Z,99940.33
2017-11-22T19:43:34.106Z,99942.14
2017-11-22T19:46:08.934Z,99938.96
2017-11-22T19:48:43.882Z,99938.77
2017-11-22T19:51:20.453Z,99943.48
2017-11-22T19:53:59.705Z,99938.84
2017-11-22T19:56:38.721Z,99927.48
2017-11-22T19:59:14.339Z,99927.08
2017-11-22T20:01:50.573Z,99919.13
2017-11-22T20:04:29.304Z,99931.26
2017-11-22T20:07:17.481Z,99930.88
2017-11-22T20:09:56.517Z,99927.37
2017-11-22T20:12:40.698Z,99927.73
2017-11-22T20:15:20.206Z,99928.16
2017-11-22T20:17:56.020Z,99923.98
2017-11-22T20:20:33.768Z,99910.50
2017-11-22T20:23:11.749Z,99926.05
2017-11-22T20:25:48.940Z,99924.79
2017-11-22T20:28:24.152Z,99922.94
2017-11-22T20:30:59.034Z,99918.20
2017-11-22T20:33:33.759Z,99917.57
2017-11-22T20:36:08.586Z,99917.48
2017-11-22T20:38:46.159Z,99911.02
2017-11-22T20:41:22.738Z,99917.28
2017-11-22T20:43:58.109Z,99905.75
2017-11-22T20:46:33.097Z,99907.22
2017-11-22T20:49:09.872Z,99905.41
2017-11-22T20:51:48.018Z,99893.97
2017-11-22T20:54:23.954Z,99895.56
2017-11-22T20:56:59.288Z,99896.88
2017-11-22T20:59:33.690Z,99892.08
2017-11-22T21:02:08.632Z,99901.64
2017-11-22T21:04:43.709Z,99900.72
2017-11-22T21:07:18.448Z,99898.09
2017-11-22T21:09:53.181Z,99903.67
2017-11-22T21:12:27.944Z,99894.45
2017-11-22T21:15:02.820Z,99900.69
2017-11-22T21:17:37.974Z,99900.09
2017-11-22T21:20:13.060Z,99898.94
2017-11-22T21:22:47.833Z,99876.41
2017-11-22T21:25:22.606Z,99889.72
2017-11-22T21:27:56.836Z,99891.80
2017-11-22T21:30:31.797Z,99894.42
2017-11-22T21:33:06.593Z,99894.86
2017-11-22T21:35:41.190Z,99887.88
2017-11-22T21:38:16.041Z,99902.94
2017-11-22T21:40:50.973Z,99894.14
2017-11-22T21:43:25.677Z,99891.10
2017-11-22T21:46:00.411Z,99891.30
2017-11-22T21:48:35.332Z,99879.69
2017-11-22T21:51:10.167Z,99890.02
2017-11-22T21:53:45.034Z,99889.42
2017-11-22T21:56:19.952Z,99879.15
2017-11-22T21:58:54.577Z,99881.77
2017-11-22T22:01:29.457Z,99874.27
2017-11-22T22:04:04.324Z,99875.73
2017-11-22T22:06:39.034Z,99871.37
2017-11-22T22:09:13.941Z,99871.48
2017-11-22T22:11:48.302Z,99873.84
2017-11-22T22:14:23.119Z,99873.48
2017-11-22T22:16:58.121Z,99839.39
2017-11-22T22:19:33.001Z,99870.84
2017-11-22T22:22:07.953Z,99871.00
2017-11-22T22:24:42.706Z,99872.92
2017-11-22T22:27:17.400Z,99876.48
2017-11-22T22:29:52.005Z,99868.75
2017-11-22T22:32:27.042Z,99867.19
2017-11-22T22:35:01.622Z,99861.59
2017-11-22T22:37:36.142Z,99860.95
2017-11-22T22:40:10.859Z,99859.22
2017-11-22T22:42:45.761Z,99853.55
2017-11-22T22:45:20.589Z,99850.84
2017-11-22T22:47:55.352Z,99850.87
2017-11-22T22:50:30.109Z,99852.41
2017-11-22T22:53:04.903Z,99858.28
2017-11-22T22:55:39.644Z,99858.80
2017-11-22T22:58:14.349Z,99859.66
2017-11-22T23:00:49.106Z,99847.50
2017-11-22T23:03:23.920Z,99847.64
2017-11-22T23:05:58.905Z,99841.34
2017-11-22T23:08:33.741Z,99839.52
2017-11-22T23:11:08.533Z,99827.89
2017-11-22T23:13:43.245Z,99829.61
2017-11-22T23:16:18.070Z,99825.52
2017-11-22T23:18:53.158Z,99826.36
2017-11-22T23:21:28.798Z,99822.52
2017-11-22T23:24:03.890Z,99802.97
2017-11-22T23:26:38.839Z,99802.32
2017-11-22T23:29:13.569Z,99799.01
2017-11-22T23:31:48.426Z,99803.11
2017-11-22T23:34:23.218Z,99793.27
2017-11-22T23:36:58.065Z,99782.22
2017-11-22T23:39:32.917Z,99783.77
2017-11-22T23:42:07.670Z,99793.84
2017-11-22T23:44:42.420Z,99798.02
2017-11-22T23:47:17.098Z,99808.59
2017-11-22T23:49:52.108Z,99798.29
2017-11-22T23:52:26.843Z,99797.59
2017-11-22T23:55:01.604Z,99783.13
2017-11-22T23:57:36.513Z,99776.84
